Time;durP1;ratioP1;P1;durP2;ratioP2;P2;SDS_P1;SDS_P2;PMS_P1;PMS_P2;Temp;Humidity;BMP_temperature;BMP_pressure;BME280_temperature;BME280_humidity;BME280_pressure;Samples;Min_cycle;Max_cycle;Signal;HPM_P1;HPM_P2
2024/03/29 00:02:14;;;;;;;7.60;1.08;;;;;;;;;;4952037;28;20153;-67
2024/03/29 00:04:40;;;;;;;7.10;1.20;;;;;;;;;;4967522;28;20117;-67
2024/03/29 00:07:06;;;;;;;7.22;0.90;;;;;;;;;;4947381;28;20141;-67
2024/03/29 00:09:32;;;;;;;5.55;1.02;;;;;;;;;;4963414;28;20493;-67
2024/03/29 00:11:59;;;;;;;7.88;1.55;;;;;;;;;;4949700;28;20038;-67
2024/03/29 00:14:26;;;;;;;5.13;1.10;;;;;;;;;;4951925;28;20159;-67
2024/03/29 00:16:52;;;;;;;9.32;1.33;;;;;;;;;;4970475;28;20486;-67
2024/03/29 00:19:18;;;;;;;4.18;1.23;;;;;;;;;;4952498;28;20162;-67
2024/03/29 00:21:44;;;;;;;6.85;0.93;;;;;;;;;;4951031;28;20459;-67
2024/03/29 00:24:10;;;;;;;5.57;1.27;;;;;;;;;;4969097;28;20053;-67
2024/03/29 00:26:37;;;;;;;5.35;1.05;;;;;;;;;;4969460;28;20046;-67
2024/03/29 00:29:03;;;;;;;6.55;1.60;;;;;;;;;;4951893;28;20046;-67
2024/03/29 00:31:29;;;;;;;7.03;1.58;;;;;;;;;;4950259;28;20065;-67
2024/03/29 00:33:55;;;;;;;8.45;1.50;;;;;;;;;;4946389;28;20059;-68
2024/03/29 00:36:21;;;;;;;4.95;1.25;;;;;;;;;;4948245;28;20043;-67
2024/03/29 00:38:47;;;;;;;3.22;1.10;;;;;;;;;;4967493;28;20584;-67
2024/03/29 00:41:14;;;;;;;8.55;1.40;;;;;;;;;;4964838;28;20066;-67
2024/03/29 00:43:40;;;;;;;7.18;1.38;;;;;;;;;;4947018;28;20053;-67
2024/03/29 00:46:06;;;;;;;7.22;1.77;;;;;;;;;;4947748;28;20395;-67
2024/03/29 00:48:32;;;;;;;8.10;1.00;;;;;;;;;;4945225;28;20133;-67
2024/03/29 00:50:58;;;;;;;12.40;1.55;;;;;;;;;;4964647;28;20121;-67
2024/03/29 00:53:24;;;;;;;7.30;1.20;;;;;;;;;;4946127;28;20581;-67
2024/03/29 00:55:51;;;;;;;7.25;1.38;;;;;;;;;;4967537;28;20039;-68
2024/03/29 00:58:17;;;;;;;7.80;1.70;;;;;;;;;;4951182;28;20058;-67
2024/03/29 01:00:43;;;;;;;5.78;1.42;;;;;;;;;;4949626;28;20396;-68
2024/03/29 01:03:09;;;;;;;9.82;1.90;;;;;;;;;;4968282;28;20043;-67
2024/03/29 01:05:36;;;;;;;7.60;1.20;;;;;;;;;;4965482;28;20125;-67
2024/03/29 01:08:02;;;;;;;8.13;1.33;;;;;;;;;;4948732;28;20054;-67
2024/03/29 01:10:28;;;;;;;5.13;1.10;;;;;;;;;;4963509;28;20051;-67
2024/03/29 01:12:54;;;;;;;4.85;1.25;;;;;;;;;;4946257;28;20566;-67
2024/03/29 01:15:21;;;;;;;7.32;1.42;;;;;;;;;;4965965;28;20376;-68
2024/03/29 01:17:47;;;;;;;6.00;1.52;;;;;;;;;;4966634;28;20117;-67
2024/03/29 01:20:13;;;;;;;5.07;1.15;;;;;;;;;;4948281;28;20105;-68
2024/03/29 01:22:39;;;;;;;8.00;1.98;;;;;;;;;;4946112;28;21019;-67
2024/03/29 01:25:07;;;;;;;8.18;2.20;;;;;;;;;;4948355;28;20046;-68
2024/03/29 01:27:34;;;;;;;7.90;1.13;;;;;;;;;;4965682;28;20089;-68
2024/03/29 01:30:00;;;;;;;10.90;1.73;;;;;;;;;;4945913;28;20047;-68
2024/03/29 01:32:26;;;;;;;8.15;1.60;;;;;;;;;;4946826;28;20141;-67
2024/03/29 01:34:52;;;;;;;7.20;1.63;;;;;;;;;;4946850;28;20069;-67
2024/03/29 01:37:19;;;;;;;5.00;1.13;;;;;;;;;;4946869;28;20097;-67
2024/03/29 01:39:45;;;;;;;7.53;1.38;;;;;;;;;;4947156;28;20395;-67
2024/03/29 01:42:11;;;;;;;6.32;1.02;;;;;;;;;;4947471;28;20047;-67
2024/03/29 01:44:37;;;;;;;8.95;1.75;;;;;;;;;;4964153;28;20121;-68
2024/03/29 01:47:03;;;;;;;7.57;1.58;;;;;;;;;;4945537;28;20357;-67
2024/03/29 01:49:30;;;;;;;7.85;1.23;;;;;;;;;;4943996;28;20046;-67
2024/03/29 01:51:57;;;;;;;8.23;1.65;;;;;;;;;;4963741;28;20079;-67
2024/03/29 01:54:23;;;;;;;8.95;1.65;;;;;;;;;;4946825;28;20062;-67
2024/03/29 01:56:49;;;;;;;5.82;1.35;;;;;;;;;;4948014;28;20214;-68
2024/03/29 01:59:17;;;;;;;6.07;1.35;;;;;;;;;;4965668;28;20082;-68
2024/03/29 02:01:43;;;;;;;9.50;2.63;;;;;;;;;;4950574;28;20101;-67
2024/03/29 02:04:10;;;;;;;10.88;1.20;;;;;;;;;;4958355;28;20054;-67
2024/03/29 02:06:37;;;;;;;9.10;2.20;;;;;;;;;;4964596;28;20104;-68
2024/03/29 02:09:03;;;;;;;5.40;1.08;;;;;;;;;;4958639;28;20466;-67
2024/03/29 02:11:30;;;;;;;8.73;1.67;;;;;;;;;;4947070;28;20424;-68
2024/03/29 02:13:56;;;;;;;8.05;1.58;;;;;;;;;;4964752;28;20038;-67
2024/03/29 02:16:22;;;;;;;7.40;1.35;;;;;;;;;;4965492;28;20043;-67
2024/03/29 02:18:48;;;;;;;12.10;1.70;;;;;;;;;;4965021;28;20046;-68
2024/03/29 02:21:15;;;;;;;8.20;2.70;;;;;;;;;;4948199;28;20051;-68
2024/03/29 02:23:43;;;;;;;5.32;1.20;;;;;;;;;;4965274;28;20046;-67
2024/03/29 02:26:10;;;;;;;4.55;1.10;;;;;;;;;;4945554;28;20043;-67
2024/03/29 02:28:36;;;;;;;5.40;0.80;;;;;;;;;;4965417;28;20402;-67
2024/03/29 02:31:02;;;;;;;7.90;1.10;;;;;;;;;;4947302;28;20133;-68
2024/03/29 02:33:29;;;;;;;4.18;1.45;;;;;;;;;;4951077;28;20372;-67
2024/03/29 02:35:55;;;;;;;8.82;1.70;;;;;;;;;;4953707;28;20047;-68
2024/03/29 02:38:21;;;;;;;6.07;1.20;;;;;;;;;;4953926;28;20169;-68
2024/03/29 02:40:47;;;;;;;9.32;0.82;;;;;;;;;;4952492;28;20066;-68
2024/03/29 02:43:13;;;;;;;9.38;1.48;;;;;;;;;;4969218;28;20514;-67
2024/03/29 02:45:39;;;;;;;9.82;1.52;;;;;;;;;;4952244;28;20074;-67
2024/03/29 02:48:06;;;;;;;3.85;1.17;;;;;;;;;;4969977;28;20046;-67
2024/03/29 02:50:32;;;;;;;6.00;1.45;;;;;;;;;;4951673;28;20042;-67
2024/03/29 02:52:58;;;;;;;10.23;1.40;;;;;;;;;;4949791;28;20525;-67
2024/03/29 02:55:24;;;;;;;11.55;1.58;;;;;;;;;;4952777;28;20047;-67
2024/03/29 02:57:50;;;;;;;4.88;1.10;;;;;;;;;;4969657;28;20070;-67
2024/03/29 03:00:17;;;;;;;10.02;2.28;;;;;;;;;;4951938;28;20055;-67
2024/03/29 03:02:43;;;;;;;6.63;1.73;;;;;;;;;;4970341;28;20119;-67
2024/03/29 03:05:09;;;;;;;7.63;2.10;;;;;;;;;;4951689;28;20130;-68
2024/03/29 03:13:07;;;;;;;7.13;1.67;;;;;;;;;;4969453;28;20082;-67
2024/03/29 03:15:33;;;;;;;8.07;1.20;;;;;;;;;;4948037;28;20463;-67
2024/03/29 03:17:59;;;;;;;5.50;0.98;;;;;;;;;;4971422;28;20061;-67
2024/03/29 03:20:30;;;;;;;6.20;1.52;;;;;;;;;;4951447;28;20510;-68
2024/03/29 03:22:57;;;;;;;4.47;0.88;;;;;;;;;;4949124;28;20107;-67
2024/03/29 03:25:23;;;;;;;5.68;1.02;;;;;;;;;;4950885;28;20105;-67
2024/03/29 03:27:49;;;;;;;6.68;1.65;;;;;;;;;;4966126;28;20378;-67
2024/03/29 03:30:16;;;;;;;6.70;1.38;;;;;;;;;;4947325;28;20046;-67
2024/03/29 03:32:42;;;;;;;4.50;0.80;;;;;;;;;;4958195;28;20229;-68
2024/03/29 03:35:08;;;;;;;7.63;1.42;;;;;;;;;;4948833;28;20886;-67
2024/03/29 03:37:35;;;;;;;6.18;1.42;;;;;;;;;;4950144;28;20057;-67
2024/03/29 03:40:01;;;;;;;6.53;1.35;;;;;;;;;;4948304;28;20043;-68
2024/03/29 03:42:27;;;;;;;7.65;1.98;;;;;;;;;;4966611;28;20054;-68
2024/03/29 03:44:53;;;;;;;9.13;1.38;;;;;;;;;;4947070;28;20098;-67
2024/03/29 03:47:20;;;;;;;8.20;1.50;;;;;;;;;;4948613;28;20043;-68
2024/03/29 03:49:46;;;;;;;4.90;1.33;;;;;;;;;;4947876;28;20482;-67
2024/03/29 03:52:12;;;;;;;6.30;1.23;;;;;;;;;;4947621;28;20051;-67
2024/03/29 03:54:38;;;;;;;7.75;1.85;;;;;;;;;;4949003;28;20058;-67
2024/03/29 03:57:05;;;;;;;6.32;1.00;;;;;;;;;;4948204;28;20104;-68
2024/03/29 03:59:31;;;;;;;6.80;1.17;;;;;;;;;;4964121;28;20047;-68
2024/03/29 04:01:58;;;;;;;6.72;1.08;;;;;;;;;;4950204;28;20059;-67
2024/03/29 04:04:24;;;;;;;9.05;1.13;;;;;;;;;;4965176;28;20098;-67
2024/03/29 04:06:50;;;;;;;6.35;1.58;;;;;;;;;;4945103;28;20502;-67
2024/03/29 04:09:17;;;;;;;11.50;2.03;;;;;;;;;;4946434;28;21577;-68
2024/03/29 04:11:43;;;;;;;6.43;1.13;;;;;;;;;;4960374;28;20078;-68
2024/03/29 04:14:10;;;;;;;10.75;1.70;;;;;;;;;;4946291;28;20051;-67
2024/03/29 04:16:36;;;;;;;3.15;1.13;;;;;;;;;;4961790;28;20466;-67
2024/03/29 04:19:02;;;;;;;6.93;1.20;;;;;;;;;;4946088;28;20086;-67
2024/03/29 04:21:28;;;;;;;8.70;1.08;;;;;;;;;;4947191;28;20443;-68
2024/03/29 04:23:54;;;;;;;5.93;1.33;;;;;;;;;;4944506;28;20102;-67
2024/03/29 04:26:20;;;;;;;6.22;1.45;;;;;;;;;;4942744;28;20111;-67
2024/03/29 04:28:47;;;;;;;8.18;1.30;;;;;;;;;;4943606;28;20847;-67
2024/03/29 04:31:13;;;;;;;7.07;1.50;;;;;;;;;;4944364;28;20157;-68
2024/03/29 04:33:39;;;;;;;10.93;1.20;;;;;;;;;;4941316;28;20086;-67
2024/03/29 04:36:06;;;;;;;7.20;1.30;;;;;;;;;;4943673;28;20114;-67
2024/03/29 04:38:32;;;;;;;5.53;1.60;;;;;;;;;;4964830;28;20055;-67
2024/03/29 04:40:59;;;;;;;5.55;1.30;;;;;;;;;;4946905;28;20142;-67
2024/03/29 04:43:27;;;;;;;7.38;1.38;;;;;;;;;;4948450;28;20051;-67
2024/03/29 04:46:04;;;;;;;6.28;1.30;;;;;;;;;;4946595;28;20110;-67
2024/03/29 04:48:31;;;;;;;7.28;1.33;;;;;;;;;;4944552;28;20046;-67
2024/03/29 04:50:57;;;;;;;5.32;1.05;;;;;;;;;;4942838;28;20047;-67
2024/03/29 04:53:23;;;;;;;7.45;1.45;;;;;;;;;;4944007;28;20047;-67
2024/03/29 04:55:55;;;;;;;6.25;1.08;;;;;;;;;;4946634;28;20121;-67
2024/03/29 04:58:22;;;;;;;5.97;1.42;;;;;;;;;;4949636;28;20043;-67
2024/03/29 05:00:49;;;;;;;7.47;1.63;;;;;;;;;;4946619;28;20463;-67
2024/03/29 05:03:15;;;;;;;7.40;1.58;;;;;;;;;;4942407;28;20050;-67
2024/03/29 05:05:41;;;;;;;7.07;1.60;;;;;;;;;;4946405;28;20050;-68
2024/03/29 05:08:07;;;;;;;5.45;0.98;;;;;;;;;;4946775;28;20117;-67
2024/03/29 05:10:34;;;;;;;6.43;1.35;;;;;;;;;;4965231;28;20394;-67
2024/03/29 05:13:01;;;;;;;6.35;1.05;;;;;;;;;;4963359;28;20492;-67
2024/03/29 05:15:27;;;;;;;5.97;0.98;;;;;;;;;;4947655;28;20050;-67
2024/03/29 05:17:53;;;;;;;7.38;1.17;;;;;;;;;;4946978;28;20042;-67
2024/03/29 05:20:20;;;;;;;4.68;1.13;;;;;;;;;;4965020;28;20122;-67
2024/03/29 05:22:46;;;;;;;8.73;1.88;;;;;;;;;;4946258;28;20042;-67
2024/03/29 05:25:12;;;;;;;6.05;1.00;;;;;;;;;;4948648;28;20050;-67
2024/03/29 05:27:38;;;;;;;5.85;1.00;;;;;;;;;;4946660;28;20042;-67
2024/03/29 05:30:04;;;;;;;3.53;0.95;;;;;;;;;;4964650;28;20173;-67
2024/03/29 05:32:31;;;;;;;5.95;1.20;;;;;;;;;;4947247;28;20226;-67
2024/03/29 05:34:57;;;;;;;7.45;1.35;;;;;;;;;;4964161;28;20119;-67
2024/03/29 05:37:25;;;;;;;6.15;1.33;;;;;;;;;;4946918;28;20134;-68
2024/03/29 05:39:59;;;;;;;4.70;0.90;;;;;;;;;;4964586;28;20094;-67
2024/03/29 05:42:26;;;;;;;6.13;1.58;;;;;;;;;;4962769;28;20121;-68
2024/03/29 05:44:52;;;;;;;6.28;1.02;;;;;;;;;;4956572;28;20050;-67
2024/03/29 05:47:18;;;;;;;7.68;1.02;;;;;;;;;;4964936;28;20074;-67
2024/03/29 05:49:45;;;;;;;5.35;1.30;;;;;;;;;;4945977;28;20702;-67
2024/03/29 05:52:13;;;;;;;14.88;2.00;;;;;;;;;;4946608;28;20058;-67
2024/03/29 05:54:40;;;;;;;6.47;1.17;;;;;;;;;;4946872;28;20435;-67
2024/03/29 05:57:08;;;;;;;8.00;1.30;;;;;;;;;;4946993;28;20041;-67
2024/03/29 05:59:34;;;;;;;4.15;1.05;;;;;;;;;;4945286;28;20064;-68
2024/03/29 06:02:00;;;;;;;4.70;1.25;;;;;;;;;;4964390;28;20402;-67
2024/03/29 06:04:32;;;;;;;5.55;1.30;;;;;;;;;;4946010;28;20043;-68
2024/03/29 06:07:00;;;;;;;6.53;1.27;;;;;;;;;;4942838;28;20083;-67
2024/03/29 06:09:26;;;;;;;4.03;0.90;;;;;;;;;;4949356;28;20039;-67
2024/03/29 06:11:54;;;;;;;3.63;0.80;;;;;;;;;;4955287;28;20138;-66
2024/03/29 06:17:24;;;;;;;5.93;1.85;;;;;;;;;;4940505;28;20166;-67
2024/03/29 06:19:51;;;;;;;6.63;1.10;;;;;;;;;;4945517;28;20485;-67
2024/03/29 06:22:18;;;;;;;7.47;1.00;;;;;;;;;;4947484;28;20474;-67
2024/03/29 06:24:45;;;;;;;5.03;1.15;;;;;;;;;;4948582;28;20059;-67
2024/03/29 06:27:11;;;;;;;6.95;1.35;;;;;;;;;;4947343;28;20078;-67
2024/03/29 06:29:38;;;;;;;6.43;1.48;;;;;;;;;;4946552;28;20135;-67
2024/03/29 06:32:04;;;;;;;4.75;0.80;;;;;;;;;;4951758;28;20043;-67
2024/03/29 06:34:31;;;;;;;8.52;1.20;;;;;;;;;;4949307;28;20126;-67
2024/03/29 06:36:57;;;;;;;4.45;1.00;;;;;;;;;;4948332;28;20065;-68
2024/03/29 06:39:25;;;;;;;5.78;1.00;;;;;;;;;;4948172;29;20039;-67
2024/03/29 06:41:51;;;;;;;8.25;2.15;;;;;;;;;;4949709;28;20048;-67
2024/03/29 06:44:18;;;;;;;4.20;1.15;;;;;;;;;;4940270;28;20047;-67
2024/03/29 06:46:44;;;;;;;7.60;1.73;;;;;;;;;;4946511;28;20047;-67
2024/03/29 06:49:10;;;;;;;5.75;1.60;;;;;;;;;;4948618;28;20145;-67
2024/03/29 06:51:36;;;;;;;4.28;1.10;;;;;;;;;;4947189;28;20086;-68
2024/03/29 06:54:03;;;;;;;4.65;1.00;;;;;;;;;;4948606;28;20059;-68
2024/03/29 06:56:30;;;;;;;5.90;1.90;;;;;;;;;;4946266;28;20055;-68
2024/03/29 06:58:56;;;;;;;5.38;1.23;;;;;;;;;;4929129;29;20479;-67
2024/03/29 07:01:22;;;;;;;7.97;1.50;;;;;;;;;;4945845;28;20075;-67
2024/03/29 07:03:48;;;;;;;3.97;1.00;;;;;;;;;;4946900;28;20047;-66
2024/03/29 07:06:14;;;;;;;3.70;1.30;;;;;;;;;;4953587;28;20082;-67
2024/03/29 07:08:41;;;;;;;3.80;1.00;;;;;;;;;;4961494;28;20047;-67
2024/03/29 07:11:07;;;;;;;7.05;1.48;;;;;;;;;;4967070;28;20051;-69
2024/03/29 07:13:33;;;;;;;5.05;1.20;;;;;;;;;;4950956;28;20375;-67
2024/03/29 07:16:00;;;;;;;3.10;0.82;;;;;;;;;;4954755;28;20050;-67
2024/03/29 07:18:26;;;;;;;6.60;1.42;;;;;;;;;;4968361;28;20057;-66
2024/03/29 07:20:53;;;;;;;3.30;0.90;;;;;;;;;;4952552;28;20046;-67
2024/03/29 07:23:19;;;;;;;3.63;0.77;;;;;;;;;;4968776;28;20051;-66
2024/03/29 07:25:46;;;;;;;2.05;1.02;;;;;;;;;;4968773;28;20046;-66
2024/03/29 07:28:14;;;;;;;5.20;0.75;;;;;;;;;;4968464;28;20057;-66
2024/03/29 07:30:41;;;;;;;3.58;0.90;;;;;;;;;;4951966;28;20078;-66
2024/03/29 07:33:09;;;;;;;3.97;1.35;;;;;;;;;;4970548;28;20058;-67
2024/03/29 07:35:35;;;;;;;6.88;2.20;;;;;;;;;;4952161;28;20046;-66
2024/03/29 07:38:01;;;;;;;3.10;0.70;;;;;;;;;;4953216;28;20047;-66
2024/03/29 07:40:28;;;;;;;3.35;0.93;;;;;;;;;;4951486;28;20046;-67
2024/03/29 07:42:54;;;;;;;2.58;0.60;;;;;;;;;;4950467;28;20054;-67
2024/03/29 07:45:20;;;;;;;2.53;0.70;;;;;;;;;;4968835;28;20414;-66
2024/03/29 07:47:52;;;;;;;2.55;0.52;;;;;;;;;;4952842;28;20137;-66
2024/03/29 07:50:18;;;;;;;3.47;0.70;;;;;;;;;;4969117;28;20398;-66
2024/03/29 07:52:46;;;;;;;3.15;0.90;;;;;;;;;;4952707;28;20124;-66
2024/03/29 07:55:12;;;;;;;2.53;0.60;;;;;;;;;;4967857;28;20094;-66
2024/03/29 07:57:38;;;;;;;2.85;0.60;;;;;;;;;;4968347;28;20043;-67
2024/03/29 08:00:05;;;;;;;2.58;0.68;;;;;;;;;;4952466;28;20215;-67
2024/03/29 08:02:33;;;;;;;4.97;0.80;;;;;;;;;;4951797;28;20050;-66
2024/03/29 08:04:59;;;;;;;4.07;0.68;;;;;;;;;;4951397;28;20133;-66
2024/03/29 08:07:25;;;;;;;2.45;0.80;;;;;;;;;;4970027;28;20427;-66
2024/03/29 08:09:51;;;;;;;3.63;0.57;;;;;;;;;;4969226;28;20059;-66
2024/03/29 08:12:18;;;;;;;1.98;0.82;;;;;;;;;;4950146;28;20117;-66
2024/03/29 08:14:46;;;;;;;2.95;0.57;;;;;;;;;;4952123;28;20050;-66
2024/03/29 08:17:12;;;;;;;3.40;0.70;;;;;;;;;;4969527;28;20042;-67
2024/03/29 08:19:41;;;;;;;1.83;0.80;;;;;;;;;;4951887;28;20617;-66
2024/03/29 08:22:10;;;;;;;3.78;0.80;;;;;;;;;;4951243;28;20047;-66
2024/03/29 08:24:36;;;;;;;3.88;0.60;;;;;;;;;;4949669;28;20126;-66
2024/03/29 08:27:03;;;;;;;4.03;0.98;;;;;;;;;;4951473;28;20479;-67
2024/03/29 08:29:29;;;;;;;4.15;1.00;;;;;;;;;;4951661;28;20039;-67
2024/03/29 08:31:55;;;;;;;2.50;0.70;;;;;;;;;;4968666;28;20039;-67
2024/03/29 08:34:22;;;;;;;3.35;0.80;;;;;;;;;;4967629;28;20444;-67
2024/03/29 08:36:48;;;;;;;3.25;0.80;;;;;;;;;;4968921;28;20027;-67
2024/03/29 08:39:14;;;;;;;3.58;0.90;;;;;;;;;;4968869;28;20051;-67
2024/03/29 08:41:41;;;;;;;2.45;0.60;;;;;;;;;;4951735;28;20050;-67
2024/03/29 08:44:07;;;;;;;3.35;0.80;;;;;;;;;;4951242;28;20046;-67
2024/03/29 08:46:33;;;;;;;2.50;0.60;;;;;;;;;;4966588;28;20038;-66
2024/03/29 08:49:00;;;;;;;3.17;0.75;;;;;;;;;;4968792;28;20181;-67
2024/03/29 08:51:26;;;;;;;2.92;0.70;;;;;;;;;;4951172;28;20039;-66
2024/03/29 08:53:52;;;;;;;2.28;0.68;;;;;;;;;;4950953;28;20050;-67
2024/03/29 08:56:18;;;;;;;3.95;0.80;;;;;;;;;;4968715;28;20505;-67
2024/03/29 08:58:44;;;;;;;4.72;0.88;;;;;;;;;;4968095;28;20050;-66
2024/03/29 09:01:15;;;;;;;3.05;1.35;;;;;;;;;;4967516;28;20039;-67
2024/03/29 09:03:41;;;;;;;4.40;1.33;;;;;;;;;;4967601;28;20051;-67
2024/03/29 09:06:07;;;;;;;4.68;1.33;;;;;;;;;;4967149;28;20051;-67
2024/03/29 09:08:33;;;;;;;7.88;2.58;;;;;;;;;;4966998;28;20054;-67
2024/03/29 09:11:01;;;;;;;4.55;1.73;;;;;;;;;;4968441;28;20039;-67
2024/03/29 09:13:27;;;;;;;6.40;3.20;;;;;;;;;;4950041;28;20116;-67
2024/03/29 09:15:53;;;;;;;6.10;1.85;;;;;;;;;;4968212;28;20348;-67
2024/03/29 09:18:23;;;;;;;7.00;2.60;;;;;;;;;;4951183;28;20046;-67
2024/03/29 09:20:59;;;;;;;4.68;1.73;;;;;;;;;;4967374;28;20047;-67
2024/03/29 09:23:28;;;;;;;5.70;2.10;;;;;;;;;;4968208;28;20047;-66
2024/03/29 09:25:55;;;;;;;8.93;2.45;;;;;;;;;;4946083;28;20047;-67
2024/03/29 09:28:22;;;;;;;6.82;2.15;;;;;;;;;;4967210;28;20039;-66
2024/03/29 09:30:48;;;;;;;5.13;1.85;;;;;;;;;;4968621;28;20042;-67
2024/03/29 09:33:15;;;;;;;6.32;2.47;;;;;;;;;;4951134;28;20423;-67
2024/03/29 09:35:41;;;;;;;7.07;2.17;;;;;;;;;;4967047;28;20425;-67
2024/03/29 09:38:07;;;;;;;5.65;1.70;;;;;;;;;;4968496;28;20050;-67
2024/03/29 09:40:34;;;;;;;4.90;1.88;;;;;;;;;;4968952;28;20429;-66
2024/03/29 09:43:02;;;;;;;3.42;1.20;;;;;;;;;;4970927;28;20039;-67
2024/03/29 09:45:36;;;;;;;5.78;0.93;;;;;;;;;;4954482;28;20065;-66
2024/03/29 09:48:04;;;;;;;4.28;1.35;;;;;;;;;;4954177;28;20059;-67
2024/03/29 09:50:31;;;;;;;5.18;1.02;;;;;;;;;;4970027;28;20065;-67
2024/03/29 09:52:58;;;;;;;4.22;1.30;;;;;;;;;;4971258;28;20086;-66
2024/03/29 09:55:25;;;;;;;7.53;1.33;;;;;;;;;;4971312;28;20047;-67
2024/03/29 09:57:52;;;;;;;3.03;1.20;;;;;;;;;;4969736;28;20066;-67
2024/03/29 10:00:18;;;;;;;4.40;1.35;;;;;;;;;;4971706;28;20132;-67
2024/03/29 10:02:45;;;;;;;2.70;1.13;;;;;;;;;;4970257;28;20055;-66
2024/03/29 10:05:13;;;;;;;3.20;1.40;;;;;;;;;;4971561;28;20517;-66
2024/03/29 10:07:40;;;;;;;4.43;1.00;;;;;;;;;;4969891;28;20054;-67
2024/03/29 10:10:06;;;;;;;4.10;1.17;;;;;;;;;;4970597;28;20046;-67
2024/03/29 10:12:32;;;;;;;2.72;0.90;;;;;;;;;;4972231;28;20054;-67
2024/03/29 10:15:08;;;;;;;2.88;1.02;;;;;;;;;;4971467;28;20042;-66
2024/03/29 10:17:35;;;;;;;2.33;0.80;;;;;;;;;;4953540;28;20480;-66
2024/03/29 10:20:03;;;;;;;4.05;1.00;;;;;;;;;;4971602;28;20126;-67
2024/03/29 10:22:29;;;;;;;2.28;0.82;;;;;;;;;;4952505;28;20118;-67
2024/03/29 10:24:58;;;;;;;2.97;0.80;;;;;;;;;;4950840;28;20157;-67
2024/03/29 10:27:27;;;;;;;2.97;0.90;;;;;;;;;;4971402;28;20042;-67
2024/03/29 10:29:54;;;;;;;4.22;1.10;;;;;;;;;;4971407;28;20119;-67
2024/03/29 10:32:20;;;;;;;2.05;0.68;;;;;;;;;;4951895;28;20130;-67
2024/03/29 10:34:49;;;;;;;4.20;0.80;;;;;;;;;;4967527;28;20043;-67
2024/03/29 10:37:16;;;;;;;2.85;0.88;;;;;;;;;;4972102;28;20034;-67
2024/03/29 10:39:43;;;;;;;2.42;0.90;;;;;;;;;;4949207;28;20078;-67
2024/03/29 10:42:11;;;;;;;1.83;0.68;;;;;;;;;;4970906;28;20134;-67
2024/03/29 10:44:38;;;;;;;2.55;0.77;;;;;;;;;;4951084;28;20405;-67
2024/03/29 10:47:06;;;;;;;1.48;0.57;;;;;;;;;;4968846;28;20093;-66
2024/03/29 10:49:34;;;;;;;1.35;0.70;;;;;;;;;;4953109;28;20054;-67
2024/03/29 10:52:02;;;;;;;2.55;0.77;;;;;;;;;;4953441;28;20050;-67
2024/03/29 10:54:29;;;;;;;2.33;0.55;;;;;;;;;;4953273;28;20101;-67
2024/03/29 10:57:00;;;;;;;1.90;0.60;;;;;;;;;;4970998;28;20046;-67
2024/03/29 10:59:40;;;;;;;2.08;0.80;;;;;;;;;;4969894;28;20186;-67
2024/03/29 11:02:13;;;;;;;1.42;0.57;;;;;;;;;;4970333;28;20043;-67
2024/03/29 11:04:40;;;;;;;2.20;0.75;;;;;;;;;;4953297;28;20101;-67
2024/03/29 11:07:08;;;;;;;2.17;0.55;;;;;;;;;;4964549;28;20557;-67
2024/03/29 11:09:35;;;;;;;3.72;0.82;;;;;;;;;;4949902;29;20142;-67
2024/03/29 11:12:02;;;;;;;2.15;0.55;;;;;;;;;;4949964;29;20097;-67
2024/03/29 11:14:34;;;;;;;1.17;0.52;;;;;;;;;;4946062;29;21622;-67
2024/03/29 11:17:00;;;;;;;2.00;0.70;;;;;;;;;;4950112;29;20046;-67
2024/03/29 11:19:27;;;;;;;1.58;0.60;;;;;;;;;;4950965;29;20089;-67
2024/03/29 11:21:53;;;;;;;2.72;0.73;;;;;;;;;;4949060;29;20049;-67
2024/03/29 11:24:24;;;;;;;2.10;0.60;;;;;;;;;;4947589;29;20063;-67
2024/03/29 11:26:50;;;;;;;4.95;0.90;;;;;;;;;;4965622;28;20091;-67
2024/03/29 11:29:24;;;;;;;3.85;1.30;;;;;;;;;;4949709;28;20090;-67
2024/03/29 11:31:51;;;;;;;;;;;;;;;;;;4949585;29;20135;-67
2024/03/29 11:34:24;;;;;;;3.45;1.10;;;;;;;;;;4948973;28;19973;-67
2024/03/29 11:36:50;;;;;;;1.97;0.60;;;;;;;;;;4950928;28;20126;-67
2024/03/29 11:39:22;;;;;;;2.13;0.55;;;;;;;;;;4951633;29;20391;-67
2024/03/29 11:41:49;;;;;;;3.25;0.57;;;;;;;;;;4950406;29;20050;-67
2024/03/29 11:44:15;;;;;;;2.30;0.63;;;;;;;;;;4950399;29;20070;-67
2024/03/29 11:46:43;;;;;;;2.42;0.75;;;;;;;;;;4950837;29;20039;-67
2024/03/29 11:49:10;;;;;;;2.45;0.73;;;;;;;;;;4949084;29;20054;-67
2024/03/29 11:51:36;;;;;;;1.52;0.60;;;;;;;;;;4950422;29;20118;-67
2024/03/29 11:54:02;;;;;;;2.65;0.90;;;;;;;;;;4949357;28;20054;-66
2024/03/29 11:56:29;;;;;;;1.55;0.70;;;;;;;;;;4946160;29;20451;-67
2024/03/29 11:58:59;;;;;;;2.88;0.70;;;;;;;;;;4949217;29;20055;-67
2024/03/29 12:01:26;;;;;;;2.20;0.80;;;;;;;;;;4949067;28;20066;-67
2024/03/29 12:03:52;;;;;;;2.53;0.70;;;;;;;;;;4949763;28;20472;-67
2024/03/29 12:06:19;;;;;;;2.95;0.95;;;;;;;;;;4946119;29;20503;-67
2024/03/29 12:08:45;;;;;;;2.13;0.60;;;;;;;;;;4950690;29;20178;-67
2024/03/29 12:11:11;;;;;;;1.95;0.80;;;;;;;;;;4946013;28;20101;-67
2024/03/29 12:13:40;;;;;;;2.08;0.70;;;;;;;;;;4953601;28;20126;-67
2024/03/29 12:16:07;;;;;;;3.05;0.85;;;;;;;;;;4949886;28;20491;-67
2024/03/29 12:18:36;;;;;;;1.67;0.80;;;;;;;;;;4945022;29;20104;-67
2024/03/29 12:21:02;;;;;;;2.00;0.98;;;;;;;;;;4949443;29;20058;-67
2024/03/29 12:23:28;;;;;;;2.38;0.80;;;;;;;;;;4943859;28;20504;-67
2024/03/29 12:25:57;;;;;;;3.42;1.10;;;;;;;;;;4949843;29;20047;-67
2024/03/29 12:28:23;;;;;;;3.65;0.82;;;;;;;;;;4945607;29;20058;-67
2024/03/29 12:30:50;;;;;;;2.03;0.77;;;;;;;;;;4948751;28;20047;-67
2024/03/29 12:33:19;;;;;;;3.28;0.90;;;;;;;;;;4948187;29;20052;-67
2024/03/29 12:35:49;;;;;;;2.35;0.85;;;;;;;;;;4949473;28;20091;-67
2024/03/29 12:38:16;;;;;;;2.40;0.80;;;;;;;;;;4947518;28;20058;-67
2024/03/29 12:40:43;;;;;;;2.78;0.88;;;;;;;;;;4946018;29;20120;-67
2024/03/29 12:43:11;;;;;;;1.63;0.77;;;;;;;;;;4950598;29;20043;-67
2024/03/29 12:45:39;;;;;;;4.00;0.82;;;;;;;;;;4947142;29;21865;-67
2024/03/29 12:48:12;;;;;;;4.28;0.80;;;;;;;;;;4950014;28;20394;-67
2024/03/29 12:50:40;;;;;;;4.95;0.80;;;;;;;;;;4950539;28;20047;-67
2024/03/29 12:53:07;;;;;;;2.92;0.70;;;;;;;;;;4944745;29;20128;-67
2024/03/29 12:55:35;;;;;;;2.13;0.65;;;;;;;;;;4945517;29;20344;-67
2024/03/29 12:58:04;;;;;;;2.90;0.80;;;;;;;;;;4949666;28;20097;-67
2024/03/29 13:00:31;;;;;;;2.20;0.80;;;;;;;;;;4947308;29;20043;-67
2024/03/29 13:02:57;;;;;;;2.55;0.70;;;;;;;;;;4947413;29;20047;-66
2024/03/29 13:05:23;;;;;;;2.15;0.70;;;;;;;;;;4941895;29;20047;-67
2024/03/29 13:07:50;;;;;;;2.53;0.98;;;;;;;;;;4962979;28;20047;-67
2024/03/29 13:10:20;;;;;;;1.40;0.60;;;;;;;;;;4947302;28;20138;-67
2024/03/29 13:12:49;;;;;;;2.45;0.90;;;;;;;;;;4947200;29;20055;-67
2024/03/29 13:15:18;;;;;;;1.58;0.60;;;;;;;;;;4939707;28;20078;-67
2024/03/29 13:17:46;;;;;;;3.13;0.70;;;;;;;;;;4947772;28;20680;-67
2024/03/29 13:20:12;;;;;;;3.03;0.80;;;;;;;;;;4947603;28;20061;-67
2024/03/29 13:22:41;;;;;;;3.25;0.90;;;;;;;;;;4949268;29;20047;-67
2024/03/29 13:25:09;;;;;;;2.90;1.00;;;;;;;;;;4946874;29;20055;-67
2024/03/29 13:27:37;;;;;;;2.00;0.68;;;;;;;;;;4963907;28;20051;-67
2024/03/29 13:30:03;;;;;;;1.80;0.70;;;;;;;;;;4948034;28;20066;-67
2024/03/29 13:32:32;;;;;;;3.22;1.00;;;;;;;;;;4945615;29;20540;-67
2024/03/29 13:34:58;;;;;;;1.60;0.80;;;;;;;;;;4947741;28;20047;-68
2024/03/29 13:37:27;;;;;;;5.82;1.10;;;;;;;;;;4967294;28;20197;-67
2024/03/29 13:39:53;;;;;;;3.50;1.00;;;;;;;;;;4949609;28;20083;-67
2024/03/29 13:42:20;;;;;;;2.45;0.85;;;;;;;;;;4947948;29;20492;-67
2024/03/29 13:44:46;;;;;;;2.90;0.98;;;;;;;;;;4938368;29;20488;-67
2024/03/29 13:47:16;;;;;;;2.03;1.00;;;;;;;;;;4949450;29;20051;-67
2024/03/29 13:49:42;;;;;;;2.72;0.90;;;;;;;;;;4945451;29;20070;-67
2024/03/29 13:52:09;;;;;;;3.08;0.82;;;;;;;;;;4947756;29;20082;-67
2024/03/29 13:54:36;;;;;;;2.55;1.10;;;;;;;;;;4948613;29;20130;-67
2024/03/29 13:57:04;;;;;;;7.00;1.35;;;;;;;;;;4941135;29;20415;-67
2024/03/29 13:59:30;;;;;;;3.08;1.50;;;;;;;;;;4948895;28;20451;-67
2024/03/29 14:01:56;;;;;;;2.35;1.10;;;;;;;;;;4946476;29;20478;-67
2024/03/29 14:04:23;;;;;;;3.47;1.40;;;;;;;;;;4948958;29;20062;-67
2024/03/29 14:06:49;;;;;;;2.00;1.10;;;;;;;;;;4959376;28;20469;-67
2024/03/29 14:09:15;;;;;;;3.58;1.30;;;;;;;;;;4948665;28;20059;-67
2024/03/29 14:11:43;;;;;;;2.85;1.10;;;;;;;;;;4968059;28;20058;-67
2024/03/29 14:14:10;;;;;;;4.18;1.70;;;;;;;;;;4951531;28;20055;-67
2024/03/29 14:16:37;;;;;;;7.32;2.40;;;;;;;;;;4967452;28;20105;-67
2024/03/29 14:19:03;;;;;;;7.47;3.42;;;;;;;;;;4949714;28;20039;-67
2024/03/29 14:21:29;;;;;;;4.32;1.70;;;;;;;;;;4967461;28;20051;-67
2024/03/29 14:23:56;;;;;;;4.20;1.70;;;;;;;;;;4966179;28;20047;-67
2024/03/29 14:26:23;;;;;;;2.75;1.30;;;;;;;;;;4950886;28;20043;-67
2024/03/29 14:28:49;;;;;;;3.47;1.65;;;;;;;;;;4968611;28;20410;-67
2024/03/29 14:31:15;;;;;;;4.25;1.55;;;;;;;;;;4953387;28;20050;-67
2024/03/29 14:33:42;;;;;;;3.33;1.42;;;;;;;;;;4953964;28;20051;-67
2024/03/29 14:36:08;;;;;;;2.63;1.20;;;;;;;;;;4954293;28;20481;-67
2024/03/29 14:38:34;;;;;;;2.83;1.27;;;;;;;;;;4969921;28;20050;-67
2024/03/29 14:41:00;;;;;;;4.28;1.50;;;;;;;;;;4952805;28;20082;-67
2024/03/29 14:43:26;;;;;;;3.60;1.40;;;;;;;;;;4971497;28;20092;-67
2024/03/29 14:45:53;;;;;;;4.32;1.48;;;;;;;;;;4956715;28;20073;-67
2024/03/29 14:48:19;;;;;;;3.67;1.20;;;;;;;;;;4972002;28;20078;-67
2024/03/29 14:50:45;;;;;;;3.05;1.15;;;;;;;;;;4953472;28;20185;-67